Time;durP1;ratioP1;P1;durP2;ratioP2;P2;SDS_P1;SDS_P2;PMS_P1;PMS_P2;Temp;Humidity;BMP_temperature;BMP_pressure;BME280_temperature;BME280_humidity;BME280_pressure;Samples;Min_cycle;Max_cycle;Signal;HPM_P1;HPM_P2
2022/07/22 00:01:48;;;;;;;10.68;5.35;;;;;;;16.62;87.82;102073.63;5090023;27;20031;-63
2022/07/22 00:04:14;;;;;;;8.00;5.30;;;;;;;16.57;87.70;102066.75;5132594;27;20517;-62
2022/07/22 00:06:41;;;;;;;10.25;5.18;;;;;;;16.62;88.13;102066.44;5115411;27;20027;-62
2022/07/22 00:09:07;;;;;;;7.88;5.43;;;;;;;16.63;87.73;102056.56;5132226;27;20039;-62
2022/07/22 00:11:32;;;;;;;7.78;5.28;;;;;;;16.63;88.94;102062.78;5115055;27;20509;-62
2022/07/22 00:13:58;;;;;;;10.23;5.35;;;;;;;16.64;87.51;102058.25;5133047;27;20027;-62
2022/07/22 00:16:23;;;;;;;9.82;4.90;;;;;;;16.69;87.98;102062.34;5111666;27;20456;-62
2022/07/22 00:18:48;;;;;;;9.45;5.15;;;;;;;16.73;88.07;102063.00;5090156;27;20074;-63
2022/07/22 00:21:17;;;;;;;9.73;5.90;;;;;;;16.58;88.73;102060.41;5132671;27;20477;-62
2022/07/22 00:23:42;;;;;;;14.00;5.65;;;;;;;16.62;88.84;102057.50;5132624;27;20027;-62
2022/07/22 00:26:10;;;;;;;13.45;6.47;;;;;;;16.69;88.00;102062.34;5112973;27;20107;-62
2022/07/22 00:28:35;;;;;;;9.25;5.90;;;;;;;16.61;88.18;102059.31;5114702;27;20061;-62
2022/07/22 00:31:01;;;;;;;9.93;6.75;;;;;;;16.64;87.86;102053.75;5132370;27;20056;-62
2022/07/22 00:33:26;;;;;;;12.50;6.72;;;;;;;16.59;88.55;102061.28;5133343;27;20031;-62
2022/07/22 00:35:52;;;;;;;12.60;6.60;;;;;;;16.68;87.93;102063.31;5113825;27;20113;-62
2022/07/22 00:38:17;;;;;;;13.32;6.80;;;;;;;16.66;87.55;102059.88;5089940;27;20506;-62
2022/07/22 00:40:43;;;;;;;13.57;6.63;;;;;;;16.64;88.02;102053.75;5113130;27;20031;-62
2022/07/22 00:43:08;;;;;;;19.02;6.65;;;;;;;16.65;88.38;102065.34;5132530;27;20019;-62
2022/07/22 00:45:34;;;;;;;9.38;6.18;;;;;;;16.60;88.29;102046.88;5132259;27;20412;-62
2022/07/22 00:47:59;;;;;;;16.58;6.00;;;;;;;16.67;88.13;102060.72;5097250;27;20108;-62
2022/07/22 00:50:25;;;;;;;11.82;6.13;;;;;;;16.60;88.54;102060.31;5132361;27;20039;-63
2022/07/22 00:52:52;;;;;;;8.25;5.97;;;;;;;16.56;88.50;102051.59;5114681;27;20183;-62
2022/07/22 00:55:18;;;;;;;11.75;5.95;;;;;;;16.51;88.57;102053.75;5131258;27;20051;-62
2022/07/22 00:57:43;;;;;;;12.70;6.53;;;;;;;16.60;88.19;102051.41;5113254;27;20050;-62
2022/07/22 01:00:13;;;;;;;10.98;5.55;;;;;;;16.55;89.26;102043.63;5112215;27;20023;-62
2022/07/22 01:02:38;;;;;;;10.18;5.70;;;;;;;16.61;88.09;102047.72;5132226;27;20471;-62
2022/07/22 01:05:05;;;;;;;11.30;5.35;;;;;;;16.45;88.11;102032.69;5114577;27;20034;-62
2022/07/22 01:07:33;;;;;;;11.70;6.18;;;;;;;16.51;89.28;102037.63;5132494;27;20042;-62
2022/07/22 01:10:01;;;;;;;13.97;6.07;;;;;;;16.59;88.45;102045.16;5132150;27;20109;-62
2022/07/22 01:12:27;;;;;;;13.77;5.95;;;;;;;16.56;88.40;102042.69;5132573;27;20049;-62
2022/07/22 01:14:53;;;;;;;13.15;5.45;;;;;;;16.61;88.05;102036.97;5132054;27;20426;-62
2022/07/22 01:17:19;;;;;;;10.43;5.35;;;;;;;16.56;88.39;102046.22;5130068;27;20019;-62
2022/07/22 01:19:45;;;;;;;13.07;5.65;;;;;;;16.51;88.96;102037.63;5096698;27;20042;-62
2022/07/22 01:22:11;;;;;;;11.43;5.97;;;;;;;16.49;88.33;102038.69;5132555;27;20402;-62
2022/07/22 01:24:36;;;;;;;13.35;6.00;;;;;;;16.48;88.33;102035.16;5131386;27;20023;-62
2022/07/22 01:27:02;;;;;;;12.50;5.47;;;;;;;16.55;88.90;102035.59;5131422;27;20452;-62
2022/07/22 01:29:28;;;;;;;12.98;5.38;;;;;;;16.56;88.42;102040.88;5131172;27;20097;-63
2022/07/22 01:31:54;;;;;;;12.32;5.88;;;;;;;16.58;87.72;102038.06;5112254;27;20055;-63
2022/07/22 01:34:19;;;;;;;12.30;5.25;;;;;;;16.54;88.20;102037.41;5112641;27;20505;-62
2022/07/22 01:36:44;;;;;;;14.00;5.82;;;;;;;16.53;87.41;102037.50;5113635;27;20062;-62
2022/07/22 01:39:12;;;;;;;8.70;5.60;;;;;;;16.47;87.69;102037.94;5111615;27;20027;-62
2022/07/22 01:41:38;;;;;;;9.70;5.40;;;;;;;16.38;87.72;102034.06;5131325;27;20043;-63
2022/07/22 01:44:03;;;;;;;9.63;5.80;;;;;;;16.37;87.29;102036.84;5130204;27;20031;-62
2022/07/22 01:46:30;;;;;;;11.25;5.40;;;;;;;16.31;87.50;102036.31;5130626;27;20023;-64
2022/07/22 01:48:55;;;;;;;11.05;5.30;;;;;;;16.26;87.28;102041.13;5131413;27;20092;-63
2022/07/22 01:51:21;;;;;;;12.20;6.15;;;;;;;16.24;87.84;102034.16;5130535;27;20046;-63
2022/07/22 01:53:47;;;;;;;14.80;5.53;;;;;;;16.24;87.49;102039.53;5130061;27;20047;-62
2022/07/22 01:56:15;;;;;;;8.18;5.65;;;;;;;16.15;86.96;102040.13;5130723;27;20102;-62
2022/07/22 01:58:41;;;;;;;11.60;5.60;;;;;;;16.16;87.33;102037.34;5131007;27;20058;-63
2022/07/22 02:01:07;;;;;;;12.57;5.75;;;;;;;16.08;88.39;102039.69;5130223;27;20092;-62
2022/07/22 02:03:32;;;;;;;13.63;6.07;;;;;;;16.07;88.12;102038.84;5130712;27;20470;-62
2022/07/22 02:05:58;;;;;;;9.88;6.35;;;;;;;16.04;88.24;102035.50;5112902;27;20096;-62
2022/07/22 02:08:24;;;;;;;12.70;6.30;;;;;;;16.02;87.91;102026.69;5131076;27;20035;-62
2022/07/22 02:10:50;;;;;;;11.75;6.00;;;;;;;16.03;88.26;102037.34;5129596;27;20143;-62
2022/07/22 02:13:15;;;;;;;10.43;6.50;;;;;;;16.05;88.86;102031.84;5112272;27;20069;-62
2022/07/22 02:15:41;;;;;;;10.02;6.07;;;;;;;16.06;88.92;102026.38;5112426;27;20083;-62
2022/07/22 02:18:16;;;;;;;15.38;6.93;;;;;;;16.09;89.00;102025.31;5130323;27;20066;-63
2022/07/22 02:20:42;;;;;;;12.35;6.65;;;;;;;16.01;89.09;102019.59;5129898;27;20037;-62
2022/07/22 02:23:07;;;;;;;13.60;7.28;;;;;;;16.09;89.09;102025.31;5112552;27;20106;-62
2022/07/22 02:25:33;;;;;;;11.68;6.35;;;;;;;16.11;88.87;102031.44;5129551;27;20080;-62
2022/07/22 02:27:59;;;;;;;13.70;6.72;;;;;;;16.13;89.67;102030.38;5129199;27;20027;-62
2022/07/22 02:30:24;;;;;;;14.55;6.55;;;;;;;16.12;88.82;102027.81;5111877;27;20371;-62
2022/07/22 02:32:50;;;;;;;14.57;7.20;;;;;;;16.09;89.27;102025.31;5130620;27;20055;-62
2022/07/22 02:35:21;;;;;;;10.45;6.20;;;;;;;16.05;89.73;102021.09;5130923;27;20027;-62
2022/07/22 02:37:46;;;;;;;9.98;6.95;;;;;;;16.15;89.68;102024.03;5130618;27;20113;-62
2022/07/22 02:40:14;;;;;;;16.48;7.30;;;;;;;16.08;89.83;102024.44;5111136;28;20504;-62
2022/07/22 02:42:39;;;;;;;11.60;6.95;;;;;;;16.10;90.73;102024.34;5111286;28;20479;-62
2022/07/22 02:45:06;;;;;;;13.85;7.13;;;;;;;16.13;89.93;102027.69;5092323;28;20080;-63
2022/07/22 02:47:32;;;;;;;11.45;6.38;;;;;;;16.16;90.29;102026.63;5130364;28;20027;-63
2022/07/22 02:49:58;;;;;;;10.52;7.30;;;;;;;16.11;90.29;102009.94;5130315;28;20497;-63
2022/07/22 02:52:23;;;;;;;12.30;7.43;;;;;;;16.19;89.70;102021.03;5112269;28;20440;-62
2022/07/22 02:54:50;;;;;;;13.27;7.07;;;;;;;16.21;90.27;102020.94;5094690;28;20055;-62
2022/07/22 02:57:15;;;;;;;14.77;7.20;;;;;;;16.16;89.93;102009.66;5129311;28;20077;-62
2022/07/22 02:59:40;;;;;;;10.18;7.30;;;;;;;16.18;90.67;102013.06;5111989;28;20525;-62
2022/07/22 03:02:06;;;;;;;16.38;8.15;;;;;;;16.12;90.46;102015.22;5129153;28;20031;-62
2022/07/22 03:04:31;;;;;;;14.70;7.53;;;;;;;16.13;90.82;102006.22;5129603;27;20409;-62
2022/07/22 03:06:57;;;;;;;14.50;7.05;;;;;;;16.16;90.46;102001.59;5130803;27;20020;-62
2022/07/22 03:09:23;;;;;;;12.80;6.80;;;;;;;16.12;90.45;102004.50;5133067;27;20050;-62
2022/07/22 03:11:50;;;;;;;11.10;7.28;;;;;;;16.13;90.26;102006.22;5114956;27;20106;-62
2022/07/22 03:14:18;;;;;;;9.18;6.75;;;;;;;16.15;90.71;102005.22;5130477;27;20088;-62
2022/07/22 03:16:44;;;;;;;9.48;6.53;;;;;;;16.16;90.03;102004.28;5116267;27;20023;-62
2022/07/22 03:19:09;;;;;;;13.63;6.88;;;;;;;16.10;90.34;101998.38;5133960;27;20046;-62
2022/07/22 03:21:35;;;;;;;11.60;6.88;;;;;;;16.06;89.92;101995.97;5134253;27;20054;-62
2022/07/22 03:24:00;;;;;;;16.08;7.95;;;;;;;16.15;90.34;102005.22;5131706;27;20478;-62
2022/07/22 03:26:26;;;;;;;13.15;7.25;;;;;;;16.12;90.51;101999.13;5133173;27;20087;-62
2022/07/22 03:28:51;;;;;;;14.05;7.32;;;;;;;16.15;89.89;102002.53;5134284;27;20147;-62
2022/07/22 03:31:17;;;;;;;10.90;7.78;;;;;;;16.09;90.47;102003.84;5115235;27;20227;-63
2022/07/22 03:33:42;;;;;;;14.57;7.20;;;;;;;16.10;90.05;102003.72;5115595;27;20026;-62
2022/07/22 03:36:11;;;;;;;15.07;7.18;;;;;;;16.10;90.21;101995.69;5133628;27;20029;-63
2022/07/22 03:38:37;;;;;;;13.00;6.75;;;;;;;16.04;89.94;101996.09;5112148;27;20390;-62
2022/07/22 03:41:03;;;;;;;12.63;7.30;;;;;;;16.10;90.21;101997.50;5131615;27;20054;-62
2022/07/22 03:43:33;;;;;;;11.55;6.80;;;;;;;16.10;89.95;102006.41;5133728;27;20031;-62
2022/07/22 03:46:01;;;;;;;12.80;6.97;;;;;;;16.06;89.73;102006.72;5133785;27;20428;-63
2022/07/22 03:48:29;;;;;;;13.68;7.47;;;;;;;16.01;90.16;102007.03;5134233;27;20031;-62
2022/07/22 03:50:54;;;;;;;13.23;7.78;;;;;;;15.98;90.00;101999.19;5113085;27;20027;-62
2022/07/22 03:53:20;;;;;;;14.45;7.60;;;;;;;16.01;89.54;102003.50;5096555;27;20034;-61
2022/07/22 03:55:46;;;;;;;18.58;7.95;;;;;;;15.98;90.08;102004.56;5134033;27;20023;-62
2022/07/22 03:58:11;;;;;;;11.50;6.93;;;;;;;15.95;90.98;102003.91;5132663;27;20118;-62
2022/07/22 04:00:37;;;;;;;13.70;7.38;;;;;;;15.98;90.39;102001.03;5134122;27;20485;-62
2022/07/22 04:03:05;;;;;;;14.27;7.65;;;;;;;16.00;90.66;102009.81;5132348;27;20398;-63
2022/07/22 04:05:31;;;;;;;16.35;7.68;;;;;;;16.05;90.74;102013.06;5130450;27;20042;-62
2022/07/22 04:07:59;;;;;;;13.25;7.50;;;;;;;16.05;90.25;102021.09;5114945;27;20031;-62
2022/07/22 04:10:25;;;;;;;15.82;7.93;;;;;;;16.02;90.60;102021.31;5133018;27;20492;-62
2022/07/22 04:12:50;;;;;;;12.43;7.43;;;;;;;16.06;91.09;102020.13;5114537;27;20027;-62
2022/07/22 04:15:16;;;;;;;14.90;8.07;;;;;;;16.07;90.85;102017.34;5133019;27;20023;-63
2022/07/22 04:17:41;;;;;;;13.80;8.30;;;;;;;16.03;90.77;102007.81;5113215;27;20538;-62
2022/07/22 04:20:07;;;;;;;12.23;8.13;;;;;;;16.08;90.68;102021.75;5097533;27;20031;-63
2022/07/22 04:22:33;;;;;;;13.85;7.95;;;;;;;16.12;90.89;102020.59;5132223;27;20027;-62
2022/07/22 04:24:59;;;;;;;14.48;8.18;;;;;;;16.07;90.67;102016.50;5132047;27;20023;-62
2022/07/22 04:27:27;;;;;;;17.63;9.27;;;;;;;16.00;90.02;102018.75;5130681;27;20027;-62
2022/07/22 04:29:52;;;;;;;17.08;8.10;;;;;;;16.07;89.69;102020.03;5133342;27;20474;-63
2022/07/22 04:32:20;;;;;;;16.55;8.98;;;;;;;16.01;90.19;102004.34;5114810;27;20030;-62
2022/07/22 04:34:46;;;;;;;15.88;8.43;;;;;;;16.11;90.25;102015.31;5131496;27;20027;-63
2022/07/22 04:37:11;;;;;;;13.52;9.18;;;;;;;16.07;90.68;102014.69;5114771;27;20027;-62
2022/07/22 04:39:37;;;;;;;14.35;9.15;;;;;;;16.11;90.96;102013.50;5086406;27;20555;-62
2022/07/22 04:42:05;;;;;;;15.70;8.98;;;;;;;16.11;90.39;102013.50;5131159;27;20031;-62
2022/07/22 04:44:32;;;;;;;13.13;7.88;;;;;;;16.11;90.83;102012.63;5129892;27;20026;-62
2022/07/22 04:46:57;;;;;;;14.93;9.00;;;;;;;16.08;90.60;102011.03;5114915;27;20088;-62
2022/07/22 04:49:23;;;;;;;11.35;8.18;;;;;;;16.17;90.58;102014.06;5132137;27;20393;-62
2022/07/22 04:51:48;;;;;;;12.60;9.00;;;;;;;16.18;90.36;102007.69;5114032;27;20115;-62
2022/07/22 04:54:14;;;;;;;12.55;9.20;;;;;;;16.16;89.59;102001.59;5108730;28;20067;-62
2022/07/22 04:56:40;;;;;;;13.52;9.75;;;;;;;16.16;89.23;102010.50;5093437;28;20506;-62
2022/07/22 04:59:05;;;;;;;16.48;9.20;;;;;;;16.13;89.34;102003.53;5109461;28;20092;-62
2022/07/22 05:01:30;;;;;;;14.07;8.70;;;;;;;16.13;89.71;102000.84;5109557;28;20092;-62
2022/07/22 05:03:56;;;;;;;15.48;9.07;;;;;;;16.16;89.85;102004.28;5110367;28;20031;-62
2022/07/22 05:06:21;;;;;;;16.25;9.88;;;;;;;16.18;90.67;102007.69;5112127;27;20118;-62
2022/07/22 05:08:47;;;;;;;13.68;9.10;;;;;;;16.23;89.79;101998.38;5109032;28;20267;-62
2022/07/22 05:11:12;;;;;;;13.85;9.98;;;;;;;16.21;89.88;101996.78;5108727;28;20031;-62
2022/07/22 05:13:37;;;;;;;18.08;10.68;;;;;;;16.21;89.57;101994.09;5111197;28;20516;-62
2022/07/22 05:16:04;;;;;;;17.65;9.60;;;;;;;16.19;90.00;101998.72;5111627;28;20042;-62
2022/07/22 05:18:33;;;;;;;20.38;10.80;;;;;;;16.25;90.51;101998.28;5110764;28;20103;-62
2022/07/22 05:20:59;;;;;;;16.47;9.57;;;;;;;16.28;89.73;101998.06;5111012;28;20123;-62
2022/07/22 05:23:27;;;;;;;16.42;10.13;;;;;;;16.30;90.14;101990.78;5111892;28;20802;-62
2022/07/22 05:25:52;;;;;;;19.85;10.40;;;;;;;16.33;89.44;101995.94;5110138;28;20043;-62
2022/07/22 05:28:20;;;;;;;14.80;10.30;;;;;;;16.38;89.71;101995.59;5108136;28;20041;-62
2022/07/22 05:30:48;;;;;;;19.08;10.43;;;;;;;16.41;89.81;102000.75;5109922;28;20526;-62
2022/07/22 05:33:13;;;;;;;20.20;10.30;;;;;;;16.44;89.33;101990.69;5110524;28;20032;-62
2022/07/22 05:35:41;;;;;;;20.15;10.32;;;;;;;16.38;89.05;101998.28;5110144;28;20031;-62
2022/07/22 05:38:07;;;;;;;17.48;10.25;;;;;;;16.47;88.79;101992.28;5107858;28;20121;-62
2022/07/22 05:40:32;;;;;;;17.02;10.20;;;;;;;16.47;89.18;102005.72;5109503;28;20115;-62
2022/07/22 05:42:58;;;;;;;18.02;10.77;;;;;;;16.58;89.00;102004.00;5107277;28;20048;-62
2022/07/22 05:45:23;;;;;;;17.30;10.07;;;;;;;16.61;89.06;102002.91;5109628;28;22137;-62
2022/07/22 05:47:49;;;;;;;16.27;9.85;;;;;;;16.74;89.10;102006.47;5111039;28;20027;-62
2022/07/22 05:50:15;;;;;;;18.48;11.48;;;;;;;16.86;88.65;102004.78;5111660;28;20030;-62
2022/07/22 05:52:40;;;;;;;18.73;9.77;;;;;;;16.94;88.39;101996.16;5111245;28;20105;-62
2022/07/22 05:55:07;;;;;;;16.15;9.80;;;;;;;17.00;88.60;102015.41;5108926;28;20046;-63
2022/07/22 05:57:34;;;;;;;16.83;9.35;;;;;;;17.04;88.44;102007.97;5110027;28;20484;-62
2022/07/22 06:00:00;;;;;;;16.00;9.70;;;;;;;17.03;88.83;101995.53;5109596;28;20043;-62
2022/07/22 06:02:25;;;;;;;16.58;10.07;;;;;;;17.27;87.95;102006.31;5108647;28;20042;-62
2022/07/22 06:04:51;;;;;;;15.57;9.45;;;;;;;17.32;86.91;101998.75;5110449;28;20027;-63
2022/07/22 06:07:17;;;;;;;14.27;9.48;;;;;;;17.39;86.60;101999.19;5110161;28;20051;-62
2022/07/22 06:09:45;;;;;;;20.92;9.63;;;;;;;17.40;86.68;101999.06;5106375;27;20148;-63
2022/07/22 06:12:10;;;;;;;17.50;8.65;;;;;;;17.52;86.25;101999.13;5108572;28;20030;-62
2022/07/22 06:14:36;;;;;;;13.95;7.53;;;;;;;17.65;84.87;102008.88;5093078;28;20028;-62
2022/07/22 06:17:02;;;;;;;18.45;7.40;;;;;;;17.64;82.15;102007.13;5109559;28;20148;-62
2022/07/22 06:19:29;;;;;;;20.77;7.88;;;;;;;17.71;83.47;102000.34;5109280;28;20028;-62
2022/07/22 06:21:56;;;;;;;14.07;7.53;;;;;;;17.66;82.85;102010.59;5093119;28;20103;-62
2022/07/22 06:24:22;;;;;;;14.93;7.53;;;;;;;17.69;84.38;101999.59;5110708;28;20072;-62
2022/07/22 06:26:48;;;;;;;15.20;7.93;;;;;;;17.70;83.92;102000.44;5111240;28;20031;-62
2022/07/22 06:29:15;;;;;;;16.63;8.68;;;;;;;17.81;83.70;101999.69;5109688;28;20482;-62
2022/07/22 06:31:40;;;;;;;15.25;8.13;;;;;;;17.88;82.02;102000.91;5111115;28;20058;-62
2022/07/22 06:34:06;;;;;;;16.23;7.13;;;;;;;18.03;81.52;102004.28;5107639;28;20457;-63
2022/07/22 06:36:32;;;;;;;14.30;5.82;;;;;;;18.03;79.39;101999.78;5108521;28;20037;-62
2022/07/22 06:38:58;;;;;;;12.77;5.97;;;;;;;18.06;78.94;102010.31;5109121;28;20058;-62
2022/07/22 06:41:24;;;;;;;11.70;5.60;;;;;;;18.22;78.17;102006.44;5108943;28;20059;-62
2022/07/22 06:43:49;;;;;;;10.52;5.28;;;;;;;18.33;76.38;102001.94;5109116;28;20027;-62
2022/07/22 06:46:15;;;;;;;10.00;4.75;;;;;;;18.28;73.10;101989.81;5093066;28;20046;-62
2022/07/22 06:48:41;;;;;;;8.75;4.07;;;;;;;18.45;74.67;102002.81;5109867;28;20100;-62
2022/07/22 06:51:06;;;;;;;9.73;3.80;;;;;;;18.47;72.59;102000.88;5108431;28;20363;-62
2022/07/22 06:53:32;;;;;;;4.00;2.90;;;;;;;18.58;69.48;101998.19;5114526;28;20081;-62
2022/07/22 06:55:58;;;;;;;6.05;2.58;;;;;;;18.60;67.91;102000.75;5130517;28;20381;-63
2022/07/22 06:58:28;;;;;;;4.75;2.40;;;;;;;18.77;66.75;102008.41;5113009;28;20023;-63
2022/07/22 07:00:54;;;;;;;8.40;3.28;;;;;;;18.89;66.51;102005.72;5131529;28;20055;-62
2022/07/22 07:03:25;;;;;;;7.10;3.60;;;;;;;18.98;67.47;102007.69;5113062;28;20026;-62
2022/07/22 07:05:50;;;;;;;4.82;2.88;;;;;;;19.02;66.13;102006.44;5130963;28;20482;-63
2022/07/22 07:08:15;;;;;;;6.47;3.10;;;;;;;19.04;64.49;102004.50;5131227;28;20035;-62
2022/07/22 07:10:41;;;;;;;5.35;2.90;;;;;;;19.04;63.55;101999.09;5112577;28;20043;-62
2022/07/22 07:13:06;;;;;;;7.50;3.55;;;;;;;19.19;65.38;101991.59;5131508;28;20051;-62
2022/07/22 07:15:32;;;;;;;5.80;2.22;;;;;;;19.26;63.18;101993.66;5112970;28;20053;-62
2022/07/22 07:17:58;;;;;;;6.68;2.40;;;;;;;19.48;63.07;101994.63;5131788;28;20023;-63
2022/07/22 07:20:25;;;;;;;5.88;2.58;;;;;;;19.43;59.92;101994.97;5112569;28;20041;-62
2022/07/22 07:22:51;;;;;;;5.25;2.30;;;;;;;19.66;62.05;101990.41;5131414;28;20071;-63
2022/07/22 07:25:16;;;;;;;2.92;1.70;;;;;;;19.61;58.64;101984.50;5130826;28;20023;-62
2022/07/22 07:27:41;;;;;;;5.75;2.15;;;;;;;19.61;59.33;101980.94;5131259;28;20077;-62
2022/07/22 07:30:11;;;;;;;4.35;2.30;;;;;;;19.72;61.65;101992.59;5131474;28;20100;-62
2022/07/22 07:32:37;;;;;;;5.82;2.45;;;;;;;19.74;61.87;101998.72;5113107;28;20382;-62
2022/07/22 07:35:04;;;;;;;5.05;2.80;;;;;;;19.59;61.99;101991.88;5131310;28;20040;-62
2022/07/22 07:37:30;;;;;;;8.45;3.08;;;;;;;19.47;63.20;102000.97;5130899;28;20386;-62
2022/07/22 07:39:58;;;;;;;6.13;2.53;;;;;;;19.39;62.34;101990.81;5095775;28;20027;-62
2022/07/22 07:42:24;;;;;;;5.10;1.98;;;;;;;19.26;59.76;101985.56;5113222;28;20061;-62
2022/07/22 07:44:50;;;;;;;5.22;2.33;;;;;;;19.25;62.01;101980.31;5131263;28;20396;-62
2022/07/22 07:47:18;;;;;;;4.93;2.00;;;;;;;19.34;63.08;101992.19;5130727;28;20102;-62
2022/07/22 07:49:47;;;;;;;4.40;1.85;;;;;;;19.08;57.92;101984.38;5131141;28;20035;-62
2022/07/22 07:52:15;;;;;;;4.43;2.00;;;;;;;19.12;60.60;101984.97;5112700;28;20099;-62
2022/07/22 07:54:42;;;;;;;3.05;1.88;;;;;;;19.13;64.52;101984.88;5114001;27;20382;-62
2022/07/22 07:57:10;;;;;;;3.80;2.10;;;;;;;19.17;62.14;101982.78;5134668;27;20034;-62
2022/07/22 07:59:36;;;;;;;5.05;2.08;;;;;;;19.03;63.70;101973.97;5134819;27;20114;-62
2022/07/22 08:02:01;;;;;;;4.55;2.58;;;;;;;19.09;66.47;101987.91;5134925;27;20055;-62
2022/07/22 08:04:29;;;;;;;5.95;3.20;;;;;;;19.08;66.56;101967.34;5135058;27;20490;-62
2022/07/22 08:06:56;;;;;;;5.95;3.05;;;;;;;19.15;65.87;101977.50;5132452;27;20092;-62
2022/07/22 08:09:24;;;;;;;4.32;2.67;;;;;;;19.01;66.18;101988.56;5115818;27;20034;-62
2022/07/22 08:11:50;;;;;;;5.60;2.67;;;;;;;18.96;65.98;101988.91;5116996;27;20111;-62
2022/07/22 08:14:17;;;;;;;7.57;3.35;;;;;;;18.92;67.64;101973.97;5134735;27;20042;-62
2022/07/22 08:16:42;;;;;;;5.78;2.70;;;;;;;18.81;66.88;101969.44;5134390;27;20027;-62
2022/07/22 08:19:10;;;;;;;4.03;2.50;;;;;;;18.78;67.35;101968.84;5115714;27;20035;-62
2022/07/22 08:21:36;;;;;;;5.22;2.67;;;;;;;18.72;68.89;101978.22;5134157;27;20042;-62
2022/07/22 08:24:04;;;;;;;5.30;2.28;;;;;;;18.72;67.74;101982.78;5133894;27;20458;-62
2022/07/22 08:26:29;;;;;;;4.63;2.60;;;;;;;18.66;67.93;101978.72;5116155;27;20035;-62
2022/07/22 08:28:55;;;;;;;9.70;2.53;;;;;;;18.62;66.88;101966.47;5115896;27;20050;-62
2022/07/22 08:31:20;;;;;;;5.03;2.70;;;;;;;18.70;66.85;101979.31;5116030;27;20027;-62
2022/07/22 08:33:46;;;;;;;7.30;2.50;;;;;;;18.72;67.60;101980.94;5115825;27;20472;-62
2022/07/22 08:36:13;;;;;;;5.95;2.83;;;;;;;18.75;66.76;101980.72;5133691;27;20030;-62
2022/07/22 08:38:39;;;;;;;5.70;2.97;;;;;;;18.90;65.31;101975.06;5116028;27;20118;-62
2022/07/22 08:41:08;;;;;;;4.15;2.38;;;;;;;19.06;66.11;101975.56;5133500;27;20508;-63
2022/07/22 08:43:35;;;;;;;5.90;2.08;;;;;;;19.35;63.48;101966.91;5115745;27;20031;-63
2022/07/22 08:46:04;;;;;;;4.35;2.63;;;;;;;19.70;60.40;101975.66;5115840;27;20019;-63
2022/07/22 08:48:30;;;;;;;6.32;2.50;;;;;;;19.97;61.94;101971.63;5114181;27;20027;-63
2022/07/22 08:50:56;;;;;;;5.85;2.60;;;;;;;20.15;58.60;101971.91;5133782;27;20434;-63
2022/07/22 08:53:22;;;;;;;5.05;2.40;;;;;;;20.22;59.45;101966.84;5133378;27;20106;-63
2022/07/22 08:55:48;;;;;;;4.03;2.10;;;;;;;20.17;58.81;101968.06;5097455;27;20038;-63
2022/07/22 08:58:14;;;;;;;4.03;2.50;;;;;;;20.14;58.72;101973.72;5133940;27;20405;-63
2022/07/22 09:00:40;;;;;;;5.10;2.20;;;;;;;20.20;59.68;101965.09;5133649;27;20035;-63
2022/07/22 09:03:21;;;;;;;7.97;2.58;;;;;;;20.13;60.94;101957.69;5133268;27;20387;-64
2022/07/22 09:05:50;;;;;;;9.35;3.17;;;;;;;20.12;59.45;101975.72;5115125;27;20080;-64
2022/07/22 09:08:16;;;;;;;5.18;2.60;;;;;;;20.10;60.94;101972.28;5133870;27;20070;-63
2022/07/22 09:10:48;;;;;;;6.18;2.80;;;;;;;20.05;61.37;101973.69;5114649;27;20153;-63
2022/07/22 09:13:16;;;;;;;5.07;2.67;;;;;;;19.92;61.37;101973.88;5098231;27;20019;-63
2022/07/22 09:15:57;;;;;;;4.47;2.35;;;;;;;19.91;61.98;101969.44;5114689;27;20019;-63
2022/07/22 09:18:25;;;;;;;6.88;2.45;;;;;;;19.82;62.54;101970.22;5133181;27;20030;-63
2022/07/22 09:20:58;;;;;;;6.82;2.17;;;;;;;19.83;61.21;101967.41;5114845;27;20031;-63
2022/07/22 09:23:24;;;;;;;5.00;2.25;;;;;;;19.85;59.90;101962.72;5133561;27;20047;-63
2022/07/22 09:25:49;;;;;;;5.72;2.47;;;;;;;19.85;60.16;101965.41;5132475;27;20112;-64
2022/07/22 09:28:23;;;;;;;5.78;2.13;;;;;;;19.81;60.73;101961.28;5114491;27;20591;-63
2022/07/22 09:30:54;;;;;;;4.60;2.33;;;;;;;19.88;60.14;101961.59;5131486;27;20075;-63
2022/07/22 09:33:20;;;;;;;3.63;2.05;;;;;;;19.91;58.44;101956.81;5133009;27;20023;-61
2022/07/22 09:35:49;;;;;;;3.50;2.30;;;;;;;20.05;60.09;101962.88;5114091;27;20027;-61
2022/07/22 09:38:17;;;;;;;4.18;2.38;;;;;;;20.09;60.28;101958.91;5133112;27;20031;-60
2022/07/22 09:40:46;;;;;;;7.53;2.47;;;;;;;20.22;59.02;101959.59;5132294;27;20042;-62
2022/07/22 09:43:17;;;;;;;4.57;2.53;;;;;;;20.44;59.50;101939.63;5132851;27;20080;-61
2022/07/22 09:45:56;;;;;;;4.60;2.85;;;;;;;20.85;57.33;101936.03;5132375;27;20031;-61
2022/07/22 09:48:23;;;;;;;4.60;2.80;;;;;;;21.10;55.36;101944.63;5132452;27;20019;-61
2022/07/22 09:50:50;;;;;;;3.55;2.40;;;;;;;21.41;56.36;101933.75;5097733;27;20026;-61
2022/07/22 09:53:18;;;;;;;5.63;2.50;;;;;;;21.58;55.46;101940.31;5132622;27;20025;-62
2022/07/22 09:55:43;;;;;;;3.88;2.63;;;;;;;21.94;54.25;101939.59;5131533;27;20045;-62
2022/07/22 09:58:09;;;;;;;5.65;2.90;;;;;;;22.17;53.66;101948.28;5132840;27;20525;-62
2022/07/22 10:00:38;;;;;;;5.65;2.88;;;;;;;22.18;51.61;101950.00;5113957;27;20049;-62
2022/07/22 10:03:05;;;;;;;;;;;;;;;22.54;51.99;101943.91;5114434;27;20030;-62
2022/07/22 10:05:34;;;;;;;6.53;2.95;;;;;;;22.51;50.54;101941.50;5132118;27;20366;-62
2022/07/22 10:08:01;;;;;;;5.35;2.90;;;;;;;22.73;49.71;101945.69;5114108;27;20092;-62
2022/07/22 10:10:28;;;;;;;8.43;2.63;;;;;;;22.95;50.89;101948.03;5113769;27;20031;-62
2022/07/22 10:12:58;;;;;;;6.00;2.35;;;;;;;22.89;48.29;101954.03;5114321;27;20095;-61
2022/07/22 10:15:27;;;;;;;5.60;2.47;;;;;;;23.12;48.36;101952.66;5132297;27;20497;-61
2022/07/22 10:18:00;;;;;;;6.60;2.50;;;;;;;23.20;48.59;101948.31;5131782;27;20382;-61
2022/07/22 10:20:29;;;;;;;7.32;2.53;;;;;;;23.35;49.13;101947.66;5132119;27;20027;-61
2022/07/22 10:22:58;;;;;;;5.13;2.65;;;;;;;23.45;49.59;101946.75;5132337;27;20019;-61
2022/07/22 10:25:26;;;;;;;5.22;2.88;;;;;;;23.78;49.14;101950.63;5131589;27;20042;-62
2022/07/22 10:28:04;;;;;;;8.52;2.85;;;;;;;23.73;49.38;101948.38;5132323;27;20026;-62
2022/07/22 10:30:35;;;;;;;7.20;3.35;;;;;;;23.39;50.84;101947.34;5112951;27;20080;-62
2022/07/22 10:33:08;;;;;;;8.50;3.20;;;;;;;23.18;51.22;101950.31;5132177;27;20098;-61
2022/07/22 10:35:57;;;;;;;169.43;17.65;;;;;;;23.42;52.10;101945.19;5131600;27;20428;-64
2022/07/22 10:38:24;;;;;;;200.10;20.02;;;;;;;23.28;50.15;101945.69;5094310;28;20379;-62
2022/07/22 10:40:54;;;;;;;5.95;3.30;;;;;;;23.19;50.83;101954.78;5131381;27;20034;-61
2022/07/22 10:43:24;;;;;;;6.88;3.33;;;;;;;23.50;51.23;101957.97;5131783;27;20035;-61
2022/07/22 10:45:56;;;;;;;5.90;3.33;;;;;;;23.89;48.98;101941.41;5113021;28;20024;-62
2022/07/22 10:48:37;;;;;;;5.45;3.50;;;;;;;23.98;47.49;101945.88;5131903;28;20023;-61
2022/07/22 10:51:15;;;;;;;5.30;2.83;;;;;;;24.34;46.65;101943.06;5131450;28;20029;-62
2022/07/22 10:53:51;;;;;;;5.82;2.67;;;;;;;24.59;45.95;101939.53;5131593;28;20066;-61
2022/07/22 10:56:21;;;;;;;4.55;2.88;;;;;;;24.72;45.24;101935.50;5131563;28;20251;-61
2022/07/22 10:58:52;;;;;;;5.88;3.05;;;;;;;24.74;45.14;101939.75;5131845;28;20023;-61
2022/07/22 11:01:24;;;;;;;5.05;2.78;;;;;;;24.35;46.43;101931.19;5131427;28;20031;-61
2022/07/22 11:03:52;;;;;;;6.93;3.63;;;;;;;24.10;46.39;101936.47;5131698;28;20035;-61
2022/07/22 11:06:25;;;;;;;6.82;3.30;;;;;;;23.94;48.27;101931.78;5131647;28;20035;-61
2022/07/22 11:09:06;;;;;;;5.07;3.28;;;;;;;23.71;47.94;101923.25;5128580;28;20076;-61
2022/07/22 11:11:49;;;;;;;7.45;3.20;;;;;;;23.46;48.53;101924.84;5110181;28;20474;-61
2022/07/22 11:14:30;;;;;;;5.35;3.40;;;;;;;23.33;47.16;101927.94;5110555;28;20023;-62
2022/07/22 11:17:11;;;;;;;7.97;3.50;;;;;;;23.19;48.83;101923.03;5131422;28;20027;-61
2022/07/22 11:19:40;;;;;;;7.20;3.45;;;;;;;23.02;47.03;101922.00;5131029;28;20100;-61